createdAt,value
2023-09-06T00:01:41.591Z,2.97
2023-09-06T00:04:43.969Z,2.73
2023-09-06T00:07:46.199Z,3.00
2023-09-06T00:10:49.078Z,3.00
2023-09-06T00:13:51.212Z,3.00
2023-09-06T00:16:53.311Z,3.20
2023-09-06T00:19:55.290Z,2.87
2023-09-06T00:22:59.553Z,3.03
2023-09-06T00:26:01.719Z,2.90
2023-09-06T00:29:05.768Z,2.50
2023-09-06T00:32:08.002Z,2.60
2023-09-06T00:35:10.148Z,2.50
2023-09-06T00:38:12.283Z,3.00
2023-09-06T00:41:14.337Z,2.42
2023-09-06T00:44:16.628Z,2.35
2023-09-06T00:47:20.005Z,2.60
2023-09-06T00:50:22.846Z,2.63
2023-09-06T00:53:26.899Z,2.88
2023-09-06T00:56:30.558Z,2.60
2023-09-06T00:59:34.000Z,2.30
2023-09-06T01:02:36.149Z,2.40
2023-09-06T01:06:02.256Z,2.70
2023-09-06T01:09:07.027Z,2.35
2023-09-06T01:12:12.060Z,2.83
2023-09-06T01:15:14.194Z,2.92
2023-09-06T01:18:17.165Z,2.47
2023-09-06T01:21:21.673Z,2.57
2023-09-06T01:24:25.822Z,2.50
2023-09-06T01:27:28.243Z,3.17
2023-09-06T01:30:30.990Z,2.40
2023-09-06T01:33:33.152Z,2.50
2023-09-06T01:36:35.270Z,2.37
2023-09-06T01:39:37.326Z,2.38
2023-09-06T01:42:39.456Z,2.28
2023-09-06T01:45:52.583Z,2.55
2023-09-06T01:48:54.979Z,2.85
2023-09-06T01:51:59.121Z,2.70
2023-09-06T01:55:01.262Z,2.85
2023-09-06T01:58:05.361Z,2.42
2023-09-06T02:01:09.022Z,2.25
2023-09-06T02:04:11.329Z,2.03
2023-09-06T02:07:13.597Z,2.33
2023-09-06T02:10:16.184Z,2.38
2023-09-06T02:13:18.320Z,2.50
2023-09-06T02:16:21.058Z,2.35
2023-09-06T02:19:23.261Z,2.60
2023-09-06T02:22:27.837Z,2.03
2023-09-06T02:25:32.004Z,2.00
2023-09-06T02:28:35.770Z,2.22
2023-09-06T02:31:39.418Z,2.38
2023-09-06T02:34:42.770Z,2.22
2023-09-06T02:37:44.921Z,2.50
2023-09-06T02:40:47.910Z,2.20
2023-09-06T02:43:49.949Z,2.55
2023-09-06T02:46:54.502Z,2.65
2023-09-06T02:49:57.210Z,2.35
2023-09-06T02:52:59.223Z,2.37
2023-09-06T02:56:02.941Z,3.00
2023-09-06T02:59:08.619Z,2.42
2023-09-06T03:02:13.830Z,2.78
2023-09-06T03:05:19.117Z,2.83
2023-09-06T03:08:22.101Z,2.60
2023-09-06T03:11:25.527Z,2.53
2023-09-06T03:14:31.434Z,2.65
2023-09-06T03:17:33.992Z,2.70
2023-09-06T03:20:44.067Z,2.42
2023-09-06T03:23:52.698Z,2.30
2023-09-06T03:26:55.304Z,2.10
2023-09-06T03:29:58.768Z,2.50
2023-09-06T03:33:01.128Z,2.53
2023-09-06T03:36:08.792Z,2.28
2023-09-06T03:39:14.801Z,2.40
2023-09-06T03:42:16.953Z,2.70
2023-09-06T03:45:22.911Z,2.13
2023-09-06T03:48:31.188Z,2.10
2023-09-06T03:51:37.596Z,2.10
2023-09-06T03:54:39.682Z,2.00
2023-09-06T03:57:41.716Z,2.60
2023-09-06T04:00:45.892Z,2.30
2023-09-06T04:03:56.186Z,2.28
2023-09-06T04:06:58.389Z,2.38
2023-09-06T04:10:03.991Z,2.50
2023-09-06T04:13:11.312Z,2.40
2023-09-06T04:16:13.986Z,2.55
2023-09-06T04:19:17.492Z,2.45
2023-09-06T04:22:21.048Z,2.42
2023-09-06T04:25:24.013Z,2.70
2023-09-06T04:28:26.744Z,2.70
2023-09-06T04:31:31.500Z,2.33
2023-09-06T04:34:34.319Z,2.35
2023-09-06T04:37:39.238Z,2.60
2023-09-06T04:40:44.397Z,2.30
2023-09-06T04:43:49.073Z,2.30
2023-09-06T04:46:51.339Z,2.63
2023-09-06T04:49:53.932Z,2.63
2023-09-06T04:52:57.743Z,2.35
2023-09-06T04:56:03.992Z,2.40
2023-09-06T04:59:13.158Z,2.53
2023-09-06T05:02:17.167Z,2.50
2023-09-06T05:05:19.390Z,2.38
2023-09-06T05:08:23.464Z,2.13
2023-09-06T05:11:25.817Z,2.37
2023-09-06T05:14:30.718Z,2.60
2023-09-06T05:17:36.328Z,2.33
2023-09-06T05:20:41.039Z,2.30
2023-09-06T05:23:49.940Z,2.20
2023-09-06T05:26:52.229Z,2.10
2023-09-06T05:29:54.513Z,2.20
2023-09-06T05:32:58.133Z,2.15
2023-09-06T05:36:01.678Z,2.28
2023-09-06T05:39:07.390Z,2.83
2023-09-06T05:42:09.866Z,2.10
2023-09-06T05:45:12.629Z,2.08
2023-09-06T05:48:16.525Z,2.25
2023-09-06T05:51:18.699Z,2.03
2023-09-06T05:54:22.471Z,2.17
2023-09-06T05:57:24.798Z,2.27
2023-09-06T06:00:30.247Z,2.60
2023-09-06T06:03:32.995Z,2.60
2023-09-06T06:06:36.102Z,2.42
2023-09-06T06:09:38.157Z,2.30
2023-09-06T06:12:40.998Z,1.87
2023-09-06T06:15:43.218Z,2.58
2023-09-06T06:18:45.309Z,3.05
2023-09-06T06:21:47.572Z,2.10
2023-09-06T06:24:51.571Z,2.33
2023-09-06T06:27:53.711Z,2.67
2023-09-06T06:30:55.936Z,2.17
2023-09-06T06:33:59.939Z,2.28
2023-09-06T06:37:01.967Z,2.20
2023-09-06T06:40:06.333Z,2.40
2023-09-06T06:43:08.554Z,2.23
2023-09-06T06:46:31.673Z,2.35
2023-09-06T06:49:33.753Z,2.00
2023-09-06T06:52:37.880Z,2.33
2023-09-06T06:55:39.954Z,2.50
2023-09-06T06:58:42.105Z,2.90
2023-09-06T07:01:44.287Z,2.30
2023-09-06T07:04:46.486Z,2.60
2023-09-06T07:07:48.716Z,2.53
2023-09-06T07:10:51.010Z,2.50
2023-09-06T07:13:54.241Z,2.63
2023-09-06T07:16:57.282Z,2.40
2023-09-06T07:20:00.024Z,2.47
2023-09-06T07:23:02.412Z,2.67
2023-09-06T07:26:05.513Z,2.58
2023-09-06T07:29:07.795Z,2.70
2023-09-06T07:32:09.936Z,2.33
2023-09-06T07:35:14.494Z,2.58
2023-09-06T07:38:16.625Z,2.70
2023-09-06T07:41:20.868Z,2.75
2023-09-06T07:44:23.201Z,2.60
2023-09-06T07:47:25.486Z,3.00
2023-09-06T07:50:27.870Z,2.70
2023-09-06T07:53:30.151Z,2.67
2023-09-06T07:56:32.264Z,2.78
2023-09-06T07:59:34.486Z,2.60
2023-09-06T08:02:37.137Z,2.78
2023-09-06T08:05:39.566Z,2.60
2023-09-06T08:08:41.720Z,2.55
2023-09-06T08:11:43.883Z,2.67
2023-09-06T08:14:46.080Z,2.33
2023-09-06T08:17:48.718Z,2.47
2023-09-06T08:20:52.953Z,2.50
2023-09-06T08:23:55.084Z,2.40
2023-09-06T08:26:57.139Z,2.53
2023-09-06T08:29:59.450Z,2.27
2023-09-06T08:33:01.841Z,2.60
2023-09-06T08:36:04.136Z,2.45
2023-09-06T08:39:07.954Z,2.20
2023-09-06T08:42:10.267Z,2.55
2023-09-06T08:45:12.644Z,2.60
2023-09-06T08:48:15.679Z,2.65
2023-09-06T08:51:21.080Z,2.55
2023-09-06T08:54:24.886Z,2.17
2023-09-06T08:57:28.075Z,2.53
2023-09-06T09:00:31.265Z,2.47
2023-09-06T09:03:34.666Z,2.78
2023-09-06T09:06:37.159Z,2.40
2023-09-06T09:10:02.911Z,2.53
2023-09-06T09:13:05.264Z,2.30
2023-09-06T09:16:12.268Z,2.13
2023-09-06T09:19:14.513Z,2.45
2023-09-06T09:22:22.087Z,2.40
2023-09-06T09:25:24.758Z,2.38
2023-09-06T09:28:29.423Z,2.97
2023-09-06T09:31:31.733Z,2.20
2023-09-06T09:34:33.918Z,2.75
2023-09-06T09:37:37.743Z,2.55
2023-09-06T09:43:44.982Z,2.42
2023-09-06T09:46:47.473Z,2.60
2023-09-06T09:49:50.004Z,2.58
2023-09-06T09:52:52.990Z,2.58
2023-09-06T09:55:56.517Z,2.38
2023-09-06T09:59:01.654Z,2.30
2023-09-06T10:02:05.512Z,2.20
2023-09-06T10:05:13.444Z,2.20
2023-09-06T10:08:17.469Z,2.38
2023-09-06T10:11:21.306Z,2.45
2023-09-06T10:14:26.621Z,2.30
2023-09-06T10:17:28.834Z,2.10
2023-09-06T10:20:33.308Z,2.30
2023-09-06T10:23:43.333Z,2.25
2023-09-06T10:26:47.766Z,1.95
2023-09-06T10:30:03.999Z,2.58
2023-09-06T10:33:07.112Z,2.03
2023-09-06T10:36:13.128Z,2.25
2023-09-06T10:39:16.280Z,2.20
2023-09-06T10:42:19.602Z,2.00
2023-09-06T10:45:22.080Z,2.00
2023-09-06T10:48:24.754Z,2.17
2023-09-06T10:51:27.361Z,2.15
2023-09-06T10:54:39.063Z,2.03
2023-09-06T10:57:53.162Z,2.17
2023-09-06T11:01:17.523Z,2.20
2023-09-06T11:04:27.275Z,2.33
2023-09-06T11:07:50.701Z,1.90
2023-09-06T11:10:59.108Z,1.77
2023-09-06T11:14:02.314Z,2.17
2023-09-06T11:17:04.720Z,2.17
2023-09-06T11:20:14.498Z,2.40
2023-09-06T11:23:17.744Z,2.10
2023-09-06T11:26:20.657Z,1.90
2023-09-06T11:29:27.450Z,2.33
2023-09-06T11:32:31.238Z,1.98
2023-09-06T11:35:39.771Z,2.10
2023-09-06T11:38:44.030Z,2.40
2023-09-06T11:41:46.732Z,1.92
2023-09-06T11:44:51.335Z,1.98
2023-09-06T11:47:55.343Z,2.50
2023-09-06T11:51:10.007Z,1.83
2023-09-06T11:54:13.328Z,2.10
2023-09-06T11:57:25.013Z,2.25
2023-09-06T12:00:44.382Z,2.20
2023-09-06T12:03:48.579Z,2.10
2023-09-06T12:06:53.326Z,2.23
2023-09-06T12:09:59.389Z,2.53
2023-09-06T12:13:01.890Z,2.10
2023-09-06T12:16:07.083Z,2.20
2023-09-06T12:19:17.692Z,2.03
2023-09-06T12:22:20.536Z,2.10
2023-09-06T12:25:24.473Z,2.20
2023-09-06T12:28:29.373Z,2.10
2023-09-06T12:31:31.903Z,2.40
2023-09-06T12:34:34.009Z,2.05
2023-09-06T12:37:37.529Z,1.87
2023-09-06T12:40:40.457Z,2.28
2023-09-06T12:43:42.663Z,2.30
2023-09-06T12:46:44.738Z,2.20
2023-09-06T12:49:46.874Z,2.15
2023-09-06T12:52:49.207Z,2.30
2023-09-06T12:55:51.299Z,2.00
2023-09-06T12:58:53.402Z,2.22
2023-09-06T13:01:55.444Z,2.35
2023-09-06T13:04:57.779Z,1.98
2023-09-06T13:08:03.438Z,2.30
2023-09-06T13:11:06.026Z,2.30
2023-09-06T13:14:08.244Z,2.03
2023-09-06T13:17:10.438Z,1.60
2023-09-06T13:20:12.633Z,2.05
2023-09-06T13:23:15.587Z,2.17
2023-09-06T13:26:17.789Z,2.15
2023-09-06T13:29:19.985Z,1.85
2023-09-06T13:32:22.486Z,1.90
2023-09-06T13:35:24.606Z,2.53
2023-09-06T13:38:26.811Z,2.27
2023-09-06T13:41:28.904Z,2.20
2023-09-06T13:44:37.066Z,1.90
2023-09-06T13:47:39.400Z,1.85
2023-09-06T13:50:41.516Z,2.15
2023-09-06T13:53:44.702Z,2.27
2023-09-06T13:56:51.060Z,2.30
2023-09-06T13:59:53.673Z,2.53
2023-09-06T14:02:55.962Z,2.40
2023-09-06T14:05:58.251Z,2.15
2023-09-06T14:09:00.332Z,2.10
2023-09-06T14:12:04.415Z,2.00
2023-09-06T14:15:24.452Z,2.17
2023-09-06T14:18:42.434Z,2.08
2023-09-06T14:22:10.682Z,2.30
2023-09-06T14:25:13.012Z,2.60
2023-09-06T14:28:15.489Z,2.40
2023-09-06T14:31:17.987Z,2.15
2023-09-06T14:34:20.425Z,2.13
2023-09-06T14:37:22.719Z,2.05
2023-09-06T14:40:24.984Z,2.13
2023-09-06T14:43:29.347Z,2.28
2023-09-06T14:46:32.430Z,2.05
2023-09-06T14:49:34.839Z,2.13
2023-09-06T14:52:37.005Z,2.28
2023-09-06T14:55:39.156Z,2.30
2023-09-06T14:58:41.291Z,2.17
2023-09-06T15:01:43.601Z,2.08
2023-09-06T15:04:45.878Z,2.03
2023-09-06T15:07:48.522Z,2.33
2023-09-06T15:10:50.531Z,2.53
2023-09-06T15:13:53.591Z,2.13
2023-09-06T15:16:55.752Z,2.15
2023-09-06T15:19:57.947Z,2.13
2023-09-06T15:22:59.977Z,2.40
2023-09-06T15:26:02.279Z,2.70
2023-09-06T15:29:04.583Z,2.30
2023-09-06T15:32:07.533Z,2.40
2023-09-06T15:35:10.476Z,2.17
2023-09-06T15:38:13.065Z,2.05
2023-09-06T15:41:18.565Z,2.20
2023-09-06T15:44:21.647Z,2.17
2023-09-06T15:47:23.718Z,2.10
2023-09-06T15:50:26.717Z,2.10
2023-09-06T15:53:28.900Z,2.28
2023-09-06T15:56:31.370Z,2.43
2023-09-06T15:59:33.990Z,2.17
2023-09-06T16:02:40.406Z,2.30
2023-09-06T16:05:42.894Z,2.40
2023-09-06T16:08:45.081Z,2.00
2023-09-06T16:11:55.391Z,2.27
2023-09-06T16:14:57.746Z,2.20
2023-09-06T16:18:00.134Z,1.95
2023-09-06T16:21:02.623Z,2.40
2023-09-06T16:24:05.968Z,2.00
2023-09-06T16:27:08.371Z,2.10
2023-09-06T16:30:10.985Z,2.00
2023-09-06T16:33:13.646Z,2.10
2023-09-06T16:36:16.130Z,2.28
2023-09-06T16:39:18.212Z,2.42
2023-09-06T16:42:22.399Z,2.20
2023-09-06T16:45:24.471Z,2.20
2023-09-06T16:48:26.946Z,2.50
2023-09-06T16:51:29.042Z,2.55
2023-09-06T16:54:31.318Z,2.30
2023-09-06T16:57:33.579Z,2.50
2023-09-06T17:00:37.138Z,2.30
2023-09-06T17:03:39.230Z,2.33
2023-09-06T17:06:41.539Z,2.53
2023-09-06T17:09:43.843Z,2.65
2023-09-06T17:12:46.818Z,2.47
2023-09-06T17:15:49.001Z,2.50
2023-09-06T17:18:51.141Z,2.67
2023-09-06T17:21:53.314Z,2.85
2023-09-06T17:25:02.744Z,2.75
2023-09-06T17:28:08.922Z,3.00
2023-09-06T17:31:11.320Z,2.75
2023-09-06T17:34:13.868Z,3.00
2023-09-06T17:37:16.199Z,2.60
2023-09-06T17:40:18.218Z,2.58
2023-09-06T17:43:22.637Z,2.73
2023-09-06T17:46:26.568Z,2.60
2023-09-06T17:49:29.974Z,2.78
2023-09-06T17:52:33.372Z,2.80
2023-09-06T17:55:37.354Z,2.58
2023-09-06T17:58:46.669Z,3.00
2023-09-06T18:01:53.066Z,2.53
2023-09-06T18:04:55.710Z,2.92
2023-09-06T18:07:58.234Z,2.88
2023-09-06T18:11:01.538Z,2.45
2023-09-06T18:14:09.150Z,3.07
2023-09-06T18:17:11.648Z,3.50
2023-09-06T18:20:16.208Z,3.97
2023-09-06T18:23:20.254Z,2.72
2023-09-06T18:26:22.872Z,2.90
2023-09-06T18:29:25.307Z,2.60
2023-09-06T18:32:29.199Z,2.20
2023-09-06T18:35:31.999Z,2.50
2023-09-06T18:38:34.280Z,2.30
2023-09-06T18:41:36.422Z,2.60
2023-09-06T18:44:39.845Z,2.43
2023-09-06T18:47:51.059Z,3.13
2023-09-06T18:50:53.990Z,2.03
2023-09-06T18:53:56.837Z,2.65
2023-09-06T18:56:59.302Z,2.65
2023-09-06T19:00:04.061Z,2.00
2023-09-06T19:03:07.977Z,2.63
2023-09-06T19:06:11.679Z,2.40
2023-09-06T19:09:16.885Z,2.33
2023-09-06T19:12:19.692Z,2.50
2023-09-06T19:15:23.332Z,2.50
2023-09-06T19:18:26.244Z,2.10
2023-09-06T19:21:29.058Z,2.20
2023-09-06T19:24:33.602Z,2.30
2023-09-06T19:27:37.427Z,2.20
2023-09-06T19:30:40.235Z,2.43
2023-09-06T19:33:44.309Z,2.58
2023-09-06T19:36:47.486Z,2.50
2023-09-06T19:39:50.811Z,2.42
2023-09-06T19:42:54.347Z,2.40
2023-09-06T19:46:01.704Z,2.57
2023-09-06T19:49:06.843Z,2.53
2023-09-06T19:52:09.768Z,2.45
2023-09-06T19:55:12.421Z,2.45
2023-09-06T19:58:15.461Z,2.33
2023-09-06T20:01:19.385Z,2.07
2023-09-06T20:04:22.475Z,2.38
2023-09-06T20:07:25.343Z,2.42
2023-09-06T20:10:27.922Z,2.35
2023-09-06T20:13:30.470Z,2.30
2023-09-06T20:16:33.024Z,2.83
2023-09-06T20:19:35.196Z,2.72
2023-09-06T20:22:37.459Z,2.30
2023-09-06T20:25:39.542Z,2.40
2023-09-06T20:28:41.927Z,2.70
2023-09-06T20:31:44.073Z,2.57
2023-09-06T20:34:46.335Z,3.00
2023-09-06T20:37:48.753Z,2.67
2023-09-06T20:40:59.508Z,2.90
2023-09-06T20:44:01.803Z,2.60
2023-09-06T20:47:05.459Z,2.93
2023-09-06T20:50:08.303Z,2.45
2023-09-06T20:53:10.567Z,2.40
2023-09-06T20:56:12.666Z,2.30
2023-09-06T20:59:14.765Z,2.22
2023-09-06T21:02:19.075Z,2.37
2023-09-06T21:05:21.097Z,2.30
2023-09-06T21:08:23.458Z,2.40
2023-09-06T21:11:25.895Z,2.42
2023-09-06T21:14:28.242Z,2.40
2023-09-06T21:17:30.367Z,2.40
2023-09-06T21:20:32.547Z,2.83
2023-09-06T21:23:36.586Z,2.22
2023-09-06T21:26:39.622Z,2.47
2023-09-06T21:29:41.705Z,2.40
2023-09-06T21:32:43.758Z,2.23
2023-09-06T21:35:46.905Z,2.33
2023-09-06T21:38:49.381Z,2.47
2023-09-06T21:41:51.673Z,2.53
2023-09-06T21:44:53.679Z,2.75
2023-09-06T21:47:56.028Z,2.80
2023-09-06T21:51:17.262Z,2.90
2023-09-06T21:54:19.450Z,3.08
2023-09-06T21:57:21.714Z,3.10
2023-09-06T22:00:29.526Z,2.78
2023-09-06T22:03:49.868Z,3.13
2023-09-06T22:07:10.938Z,3.45
2023-09-06T22:10:31.863Z,3.38
2023-09-06T22:13:52.706Z,3.30
2023-09-06T22:16:55.397Z,3.40
2023-09-06T22:19:57.590Z,3.70
2023-09-06T22:23:00.588Z,4.05
2023-09-06T22:26:03.006Z,3.97
2023-09-06T22:29:08.237Z,3.28
2023-09-06T22:32:10.729Z,3.30
2023-09-06T22:35:13.181Z,2.70
2023-09-06T22:38:15.351Z,3.28
2023-09-06T22:41:17.726Z,3.00
2023-09-06T22:44:19.929Z,2.90
2023-09-06T22:47:22.069Z,3.20
2023-09-06T22:50:24.501Z,2.80
2023-09-06T22:53:26.516Z,2.40
2023-09-06T22:56:28.788Z,3.08
2023-09-06T22:59:31.166Z,3.42
2023-09-06T23:02:33.249Z,3.00
2023-09-06T23:05:35.548Z,3.23
2023-09-06T23:08:40.205Z,3.20
2023-09-06T23:11:47.555Z,3.55
2023-09-06T23:14:50.340Z,3.03
2023-09-06T23:17:53.932Z,2.97
2023-09-06T23:20:58.746Z,2.73
2023-09-06T23:24:05.477Z,2.72
2023-09-06T23:27:08.506Z,3.10
2023-09-06T23:30:18.049Z,2.53
2023-09-06T23:33:24.230Z,2.33
2023-09-06T23:36:29.849Z,2.70
2023-09-06T23:39:34.454Z,2.67
2023-09-06T23:42:38.025Z,2.80
2023-09-06T23:45:46.773Z,2.40
2023-09-06T23:48:49.543Z,2.50
2023-09-06T23:51:51.905Z,2.77
2023-09-06T23:54:53.928Z,2.88
2023-09-06T23:57:56.282Z,2.65
